Flight Track Log - Related Links

Times and Time Zones

All times are in EDT time to prevent confusion due to time zone crossing. See the HAL306 flight status page for this flight to view local times or setup timezone preferences in your user account.

Time Position Orientation Groundspeed Altitude Reporting Facility
EDT Latitude Longitude Course Direction KTS MPH feet Rate Location/Type
Fri 01:58:11 PM 21.3167 -157.9000 118° Southeast 170 196 1,100  Level Honolulu Center
Fri 01:59:10 PM 21.2667 -157.8667 148° Southeast 230 265 2,600 1,866 Climbing Honolulu Center
Fri 02:00:10 PM 21.2167 -157.8333 148° Southeast 240 276 4,800 2,033 Climbing Honolulu Center
Fri 02:01:11 PM 21.1833 -157.7667 118° Southeast 270 311 6,700 2,083 Climbing Honolulu Center
Fri 02:02:00 PM 21.1297 -157.6111 126° Southeast  Level FlightAware Approximate
Fri 02:02:11 PM 21.1500 -157.6833 113° Southeast 280 322 9,000  Level Honolulu Center
Fri 02:03:00 PM 21.0916 -157.5498 118° Southeast  Level FlightAware Approximate
Fri 02:03:11 PM 21.1167 -157.6167 118° Southeast 300 345 10,700  Level Honolulu Center
Fri 02:04:11 PM 21.0833 -157.5333 113° Southeast 330 380 12,100 1,100 Climbing Honolulu Center
Fri 02:05:11 PM 21.0333 -157.4333 118° Southeast 360 414 12,900 450 Climbing Honolulu Center
Fri 02:06:11 PM 20.9833 -157.3333 118° Southeast 370 426 13,000 50 Climbing Honolulu Center
Fri 02:07:11 PM 20.9500 -157.2333 110° East 370 426 13,000  Level Honolulu Center
Fri 02:08:12 PM 20.9000 -157.1500 123° Southeast 370 426 13,000  Level Honolulu Center
Fri 02:09:12 PM 20.8667 -157.0500 110° East 360 414 13,000 -151 Level Honolulu Center
Fri 02:10:11 PM 20.8167 -156.9500 118° Southeast 360 414 12,700 -700 Descending Honolulu Center
Fri 02:11:12 PM 20.7833 -156.8667 113° Southeast 330 380 11,600 -1,190 Descending Honolulu Center
Fri 02:12:12 PM 20.7667 -156.7833 102° East 270 311 10,300 -1,350 Descending Honolulu Center
Fri 02:13:12 PM 20.7833 -156.6833 80° East 260 299 8,900 -1,350 Descending Honolulu Center
Fri 02:14:12 PM 20.7833 -156.6167 90° East 230 265 7,600 -1,884 Descending Honolulu Center
Fri 02:15:13 PM 20.8000 -156.5500 75° East 220 253 5,100 -2,459 Descending Honolulu Center

Login

Don't have an account? Register now (free) for customized features, flight alerts, and more!